Hovedside
METAR-TAF:

METAR-TAF

Lufthavner :

Roman Tmetuchl internasjonale lufthavn

Koror, Babeldaob, Palau

breddegrad: 07-22N, lengdegrad: 134-32E, høyde over havet: 54 m

Gjeldene værobservasjon

Denne rapporten ble laget for 26 minutter siden, klokken 03:50 UTC
Vind 10 kt fra Vest med vindkast opp mot 19 kt
Temperatur 30°C
Luftfuktighet 70%
Trykk 1007 hPa
Sikt: 24.1 km
Brutte skyer i en høyde av 1600 ft, Tårnskyer (cumulus).
Brutte skyer i en høyde av 12000 ft
Overskyet i en høyde av 30000 ft

METAR: PTRO 240350Z 28010G19KT 15SM BKN016TCU BKN120 OVC300 30/24 A2975 RMK TCU ALQDS

Tid: 13:16 (04:16 UTC)

Varsel

Denne rapporten ble laget for 4 timer og 34 minutter siden, klokken 23:42 UTC
Varsel gyldig fra 24. klokken 00 UTC til 24. klokken 24 UTC
Vind 11 kt fra Vest-nordvest
Sikt: 10 km
Spredte skyer i en høyde av 1500 ft
Spredte skyer i en høyde av 3000 ft
Brutte skyer i en høyde av 12000 ft
regnbyger i nærheten

TAF: PTRO 232342Z 2400/2424 29011KT P6SM VCSH SCT015 SCT030 BKN120

Værobservasjoner og værvarsel for over 4000 flyplasser (METAR- og TAF-rapporter).

Tilgjengelige stasjoner er representert av de røde og gule prikkene på kartet.

Hold musepekeren over prikken for å se navnet på stasjonen.

Klikk så for å se værobservasjoner og -varsler.

For å forandre kartet kan du klikke på den grønne knappen med svart kryss for å zoome inn, på den grønne knappen med strek for å zoome ut, eller på de grønne pilene for å se tilstøtende kart.


METAR-TAF: